Aeroporto :
LOGIN :

Iscrizione | Disclaimer

   EN    FR    IT 

 










Sommario :    VFR   VFR Marginale   IFR   IFR Intensivo   IFR Molto Intensivo
Visibilità : 
Base nubi : 
>= 8 km
>= 3000ft
5 / 8 km
1000 / 3000 ft
1500m / 5 km
500 / 1000 ft
800 / 1500m
200 / 500 ft
< 800m
< 200 ft
Simboli :   Temporali  Nebbia  Neve Forte  Precipitazioni Forti  Vento > 20 kt
SIGMETs :   Varie  Temporali  Ghiacco  Turbolenza  Onda orograficha  Ceneri Vulcaniche






- Altitudine del aeroporto : 1300 ft
- Codice IATA : LIG


LFBL - Limoges

ULTIMO METAR :
  • 100430Z AUTO 07004KT CAVOK 22/16 Q1014 NOSIG

METARs OBSOLETI :
  • 100400Z AUTO 07005KT CAVOK 22/16 Q1014 NOSIG
  • 100330Z AUTO 07005KT CAVOK 22/16 Q1014 NOSIG
  • 100300Z AUTO 07005KT CAVOK 22/16 Q1014 NOSIG
  • 100230Z AUTO 07005KT CAVOK 22/16 Q1013 NOSIG
  • 100200Z AUTO 06007KT CAVOK 22/16 Q1014 NOSIG
  • 100130Z AUTO 07009KT CAVOK 23/16 Q1014 NOSIG

TAF TAF LFBL
Valido dal 10 a 00 ore il 11 a 00 ore UTC


092300Z 1000/1024 VRB03KT CAVOK
BECMG 1009/1011 FEW070CB
PROB30
TEMPO 1012/1018 VRB15G25KT TSRA
PROB30
TEMPO 1021/1024 VRB15G30KT TSRA SCT050CB
ATIS : +33 5 55 48 40 37



MetMap, La meteo Aeronautica in un colpo d'occhio ! - Copyright ORBIFLY Dicembre 2007 - Disclaimer

ORBIFLY MET'MAP TEAM :

Programmazione e sviluppo : Alexandra Zaïnal
Concezione : Baudouin d'Aumeries
Aiuto per la programmazione : Marc-Olivier Méhu
Supporto tecnico e logistico : Manuel Goepfert
Aiuto per la traduzione : Arnaldo La Scala

Contatto : metmap@orbifly.com




FONTI E CREDITI :

   NOAA